sensor_id;sensor_type;location;lat;lon;timestamp;P1;durP1;ratioP1;P2;durP2;ratioP2
10281;SDS011;5186;59.472;18.048;2022-12-24T00:02:12;1.57;;;1.00;;
10281;SDS011;5186;59.472;18.048;2022-12-24T00:04:38;1.27;;;0.87;;
10281;SDS011;5186;59.472;18.048;2022-12-24T00:07:03;1.53;;;1.00;;
10281;SDS011;5186;59.472;18.048;2022-12-24T00:09:29;1.67;;;0.90;;
10281;SDS011;5186;59.472;18.048;2022-12-24T00:11:55;1.50;;;0.83;;
10281;SDS011;5186;59.472;18.048;2022-12-24T00:14:20;1.83;;;0.70;;
10281;SDS011;5186;59.472;18.048;2022-12-24T00:16:46;1.17;;;0.80;;
10281;SDS011;5186;59.472;18.048;2022-12-24T00:19:12;2.00;;;0.90;;
10281;SDS011;5186;59.472;18.048;2022-12-24T00:21:37;1.70;;;0.83;;
10281;SDS011;5186;59.472;18.048;2022-12-24T00:24:03;0.63;;;0.60;;
10281;SDS011;5186;59.472;18.048;2022-12-24T00:26:30;1.33;;;0.90;;
10281;SDS011;5186;59.472;18.048;2022-12-24T00:28:58;3.23;;;1.20;;
10281;SDS011;5186;59.472;18.048;2022-12-24T00:31:24;1.07;;;0.53;;
10281;SDS011;5186;59.472;18.048;2022-12-24T00:33:50;1.60;;;0.80;;
10281;SDS011;5186;59.472;18.048;2022-12-24T00:36:16;1.33;;;0.90;;
10281;SDS011;5186;59.472;18.048;2022-12-24T00:38:43;1.77;;;0.83;;
10281;SDS011;5186;59.472;18.048;2022-12-24T00:41:09;1.90;;;0.67;;
10281;SDS011;5186;59.472;18.048;2022-12-24T00:43:56;1.73;;;1.00;;
10281;SDS011;5186;59.472;18.048;2022-12-24T00:46:24;1.40;;;0.90;;
10281;SDS011;5186;59.472;18.048;2022-12-24T00:48:51;3.87;;;0.77;;
10281;SDS011;5186;59.472;18.048;2022-12-24T00:51:17;1.50;;;0.80;;
10281;SDS011;5186;59.472;18.048;2022-12-24T00:53:43;0.73;;;0.50;;
10281;SDS011;5186;59.472;18.048;2022-12-24T00:56:08;1.53;;;0.70;;
10281;SDS011;5186;59.472;18.048;2022-12-24T00:58:34;2.17;;;0.83;;
10281;SDS011;5186;59.472;18.048;2022-12-24T01:01:00;0.80;;;0.60;;
10281;SDS011;5186;59.472;18.048;2022-12-24T01:03:25;2.03;;;0.90;;
10281;SDS011;5186;59.472;18.048;2022-12-24T01:06:07;0.80;;;0.60;;
10281;SDS011;5186;59.472;18.048;2022-12-24T01:08:36;1.17;;;0.60;;
10281;SDS011;5186;59.472;18.048;2022-12-24T01:11:03;3.20;;;1.10;;
10281;SDS011;5186;59.472;18.048;2022-12-24T01:13:30;1.43;;;1.07;;
10281;SDS011;5186;59.472;18.048;2022-12-24T01:15:56;1.37;;;0.80;;
10281;SDS011;5186;59.472;18.048;2022-12-24T01:18:22;1.43;;;0.70;;
10281;SDS011;5186;59.472;18.048;2022-12-24T01:20:58;2.97;;;0.63;;
10281;SDS011;5186;59.472;18.048;2022-12-24T01:23:26;1.17;;;0.70;;
10281;SDS011;5186;59.472;18.048;2022-12-24T01:25:53;1.10;;;0.80;;
10281;SDS011;5186;59.472;18.048;2022-12-24T01:28:19;1.00;;;0.70;;
10281;SDS011;5186;59.472;18.048;2022-12-24T01:30:45;2.20;;;0.70;;
10281;SDS011;5186;59.472;18.048;2022-12-24T01:33:12;1.53;;;1.00;;
10281;SDS011;5186;59.472;18.048;2022-12-24T01:35:38;1.73;;;0.60;;
10281;SDS011;5186;59.472;18.048;2022-12-24T01:38:04;1.43;;;0.80;;
10281;SDS011;5186;59.472;18.048;2022-12-24T01:40:30;2.07;;;0.70;;
10281;SDS011;5186;59.472;18.048;2022-12-24T01:43:18;1.80;;;0.80;;
10281;SDS011;5186;59.472;18.048;2022-12-24T01:45:53;1.67;;;0.77;;
10281;SDS011;5186;59.472;18.048;2022-12-24T01:50:59;1.67;;;0.70;;
10281;SDS011;5186;59.472;18.048;2022-12-24T01:53:31;1.07;;;0.60;;
10281;SDS011;5186;59.472;18.048;2022-12-24T01:56:00;0.90;;;0.60;;
10281;SDS011;5186;59.472;18.048;2022-12-24T01:58:27;3.27;;;0.97;;
10281;SDS011;5186;59.472;18.048;2022-12-24T02:00:53;1.60;;;0.77;;
10281;SDS011;5186;59.472;18.048;2022-12-24T02:03:18;1.70;;;0.70;;
10281;SDS011;5186;59.472;18.048;2022-12-24T02:05:49;0.93;;;0.73;;
10281;SDS011;5186;59.472;18.048;2022-12-24T02:08:17;1.13;;;0.80;;
10281;SDS011;5186;59.472;18.048;2022-12-24T02:10:44;0.70;;;0.60;;
10281;SDS011;5186;59.472;18.048;2022-12-24T02:13:10;0.83;;;0.50;;
10281;SDS011;5186;59.472;18.048;2022-12-24T02:15:41;4.20;;;0.90;;
10281;SDS011;5186;59.472;18.048;2022-12-24T02:24:08;2.20;;;1.00;;
10281;SDS011;5186;59.472;18.048;2022-12-24T02:32:20;1.80;;;1.00;;
10281;SDS011;5186;59.472;18.048;2022-12-24T02:37:39;1.13;;;0.63;;
10281;SDS011;5186;59.472;18.048;2022-12-24T02:40:27;1.10;;;0.90;;
10281;SDS011;5186;59.472;18.048;2022-12-24T02:43:11;1.27;;;0.70;;
10281;SDS011;5186;59.472;18.048;2022-12-24T02:45:41;1.37;;;0.60;;
10281;SDS011;5186;59.472;18.048;2022-12-24T02:48:12;1.10;;;0.70;;
10281;SDS011;5186;59.472;18.048;2022-12-24T02:50:53;1.37;;;1.03;;
10281;SDS011;5186;59.472;18.048;2022-12-24T02:53:22;0.80;;;0.60;;
10281;SDS011;5186;59.472;18.048;2022-12-24T02:55:58;1.53;;;0.83;;
10281;SDS011;5186;59.472;18.048;2022-12-24T03:01:42;1.63;;;0.60;;
10281;SDS011;5186;59.472;18.048;2022-12-24T03:13:22;0.60;;;0.60;;
10281;SDS011;5186;59.472;18.048;2022-12-24T03:15:31;1.57;;;0.80;;
10281;SDS011;5186;59.472;18.048;2022-12-24T03:17:59;0.70;;;0.60;;
10281;SDS011;5186;59.472;18.048;2022-12-24T03:20:31;1.27;;;0.70;;
10281;SDS011;5186;59.472;18.048;2022-12-24T03:23:01;1.83;;;0.63;;
10281;SDS011;5186;59.472;18.048;2022-12-24T03:25:28;2.47;;;0.67;;
10281;SDS011;5186;59.472;18.048;2022-12-24T03:27:54;1.77;;;0.90;;
10281;SDS011;5186;59.472;18.048;2022-12-24T03:30:21;1.40;;;0.77;;
10281;SDS011;5186;59.472;18.048;2022-12-24T03:32:47;0.87;;;0.70;;
10281;SDS011;5186;59.472;18.048;2022-12-24T03:35:12;2.87;;;0.87;;
10281;SDS011;5186;59.472;18.048;2022-12-24T03:37:38;0.97;;;0.70;;
10281;SDS011;5186;59.472;18.048;2022-12-24T03:40:04;1.17;;;0.67;;
10281;SDS011;5186;59.472;18.048;2022-12-24T03:42:31;1.07;;;0.70;;
10281;SDS011;5186;59.472;18.048;2022-12-24T03:44:56;1.73;;;0.80;;
10281;SDS011;5186;59.472;18.048;2022-12-24T03:47:22;0.70;;;0.70;;
10281;SDS011;5186;59.472;18.048;2022-12-24T03:49:48;1.13;;;0.60;;
10281;SDS011;5186;59.472;18.048;2022-12-24T03:52:13;2.07;;;0.67;;
10281;SDS011;5186;59.472;18.048;2022-12-24T03:54:39;0.70;;;0.60;;
10281;SDS011;5186;59.472;18.048;2022-12-24T03:57:04;1.77;;;0.67;;
10281;SDS011;5186;59.472;18.048;2022-12-24T03:59:30;1.70;;;0.90;;
10281;SDS011;5186;59.472;18.048;2022-12-24T04:01:56;2.07;;;0.77;;
10281;SDS011;5186;59.472;18.048;2022-12-24T04:04:21;1.70;;;0.73;;
10281;SDS011;5186;59.472;18.048;2022-12-24T04:06:47;0.60;;;0.60;;
10281;SDS011;5186;59.472;18.048;2022-12-24T04:09:13;0.90;;;0.60;;
10281;SDS011;5186;59.472;18.048;2022-12-24T04:11:38;1.73;;;0.77;;
10281;SDS011;5186;59.472;18.048;2022-12-24T04:14:04;2.90;;;0.60;;
10281;SDS011;5186;59.472;18.048;2022-12-24T04:16:30;1.00;;;0.57;;
10281;SDS011;5186;59.472;18.048;2022-12-24T04:18:56;1.50;;;0.60;;
10281;SDS011;5186;59.472;18.048;2022-12-24T04:21:21;1.23;;;0.60;;
10281;SDS011;5186;59.472;18.048;2022-12-24T04:23:47;4.10;;;0.70;;
10281;SDS011;5186;59.472;18.048;2022-12-24T04:26:13;4.50;;;0.70;;
10281;SDS011;5186;59.472;18.048;2022-12-24T04:28:41;1.73;;;0.90;;
10281;SDS011;5186;59.472;18.048;2022-12-24T04:31:09;1.53;;;0.43;;
10281;SDS011;5186;59.472;18.048;2022-12-24T04:33:37;0.50;;;0.50;;
10281;SDS011;5186;59.472;18.048;2022-12-24T04:36:03;1.10;;;0.67;;
10281;SDS011;5186;59.472;18.048;2022-12-24T04:38:30;1.50;;;0.47;;
10281;SDS011;5186;59.472;18.048;2022-12-24T04:40:57;0.60;;;0.53;;
10281;SDS011;5186;59.472;18.048;2022-12-24T04:43:34;1.40;;;0.50;;
10281;SDS011;5186;59.472;18.048;2022-12-24T04:46:06;1.20;;;0.60;;
10281;SDS011;5186;59.472;18.048;2022-12-24T04:48:34;0.57;;;0.47;;
10281;SDS011;5186;59.472;18.048;2022-12-24T04:51:00;0.90;;;0.80;;
10281;SDS011;5186;59.472;18.048;2022-12-24T04:53:27;0.77;;;0.60;;
10281;SDS011;5186;59.472;18.048;2022-12-24T04:55:52;0.60;;;0.60;;
10281;SDS011;5186;59.472;18.048;2022-12-24T04:58:18;1.07;;;0.60;;
10281;SDS011;5186;59.472;18.048;2022-12-24T05:00:44;0.97;;;0.60;;
10281;SDS011;5186;59.472;18.048;2022-12-24T05:03:09;1.20;;;0.70;;
10281;SDS011;5186;59.472;18.048;2022-12-24T05:05:35;3.60;;;0.90;;
10281;SDS011;5186;59.472;18.048;2022-12-24T05:08:00;1.40;;;0.70;;
10281;SDS011;5186;59.472;18.048;2022-12-24T05:10:26;1.07;;;0.70;;
10281;SDS011;5186;59.472;18.048;2022-12-24T05:12:52;2.07;;;0.80;;
10281;SDS011;5186;59.472;18.048;2022-12-24T05:15:18;1.83;;;0.60;;
10281;SDS011;5186;59.472;18.048;2022-12-24T05:17:43;2.00;;;0.80;;
10281;SDS011;5186;59.472;18.048;2022-12-24T05:20:09;0.70;;;0.50;;
10281;SDS011;5186;59.472;18.048;2022-12-24T05:22:34;1.30;;;0.70;;
10281;SDS011;5186;59.472;18.048;2022-12-24T05:25:18;0.70;;;0.40;;
10281;SDS011;5186;59.472;18.048;2022-12-24T05:28:02;2.47;;;0.80;;
10281;SDS011;5186;59.472;18.048;2022-12-24T05:30:28;1.20;;;0.70;;
10281;SDS011;5186;59.472;18.048;2022-12-24T05:32:54;3.13;;;0.70;;
10281;SDS011;5186;59.472;18.048;2022-12-24T05:35:19;0.50;;;0.50;;
10281;SDS011;5186;59.472;18.048;2022-12-24T05:37:45;1.13;;;0.70;;
10281;SDS011;5186;59.472;18.048;2022-12-24T05:40:10;0.43;;;0.40;;
10281;SDS011;5186;59.472;18.048;2022-12-24T05:42:36;1.00;;;0.70;;
10281;SDS011;5186;59.472;18.048;2022-12-24T05:45:02;1.20;;;0.60;;
10281;SDS011;5186;59.472;18.048;2022-12-24T05:47:28;1.73;;;0.83;;
10281;SDS011;5186;59.472;18.048;2022-12-24T05:49:53;0.93;;;0.60;;
10281;SDS011;5186;59.472;18.048;2022-12-24T05:52:19;0.80;;;0.60;;
10281;SDS011;5186;59.472;18.048;2022-12-24T05:54:44;1.13;;;0.57;;
10281;SDS011;5186;59.472;18.048;2022-12-24T05:57:10;0.97;;;0.60;;
10281;SDS011;5186;59.472;18.048;2022-12-24T05:59:36;1.80;;;0.80;;
10281;SDS011;5186;59.472;18.048;2022-12-24T06:02:01;3.63;;;1.07;;
10281;SDS011;5186;59.472;18.048;2022-12-24T06:04:27;1.30;;;0.53;;
10281;SDS011;5186;59.472;18.048;2022-12-24T06:06:52;1.77;;;0.97;;
10281;SDS011;5186;59.472;18.048;2022-12-24T06:09:18;1.40;;;0.80;;
10281;SDS011;5186;59.472;18.048;2022-12-24T06:11:44;1.60;;;0.67;;
10281;SDS011;5186;59.472;18.048;2022-12-24T06:14:12;2.43;;;0.97;;
10281;SDS011;5186;59.472;18.048;2022-12-24T06:16:37;8.80;;;3.67;;
10281;SDS011;5186;59.472;18.048;2022-12-24T06:19:03;4.00;;;2.20;;
10281;SDS011;5186;59.472;18.048;2022-12-24T06:21:29;2.43;;;1.00;;
10281;SDS011;5186;59.472;18.048;2022-12-24T06:23:54;1.70;;;1.03;;
10281;SDS011;5186;59.472;18.048;2022-12-24T06:26:20;1.80;;;0.93;;
10281;SDS011;5186;59.472;18.048;2022-12-24T06:28:47;2.23;;;1.00;;
10281;SDS011;5186;59.472;18.048;2022-12-24T06:31:15;3.50;;;0.90;;
10281;SDS011;5186;59.472;18.048;2022-12-24T06:33:43;2.80;;;0.80;;
10281;SDS011;5186;59.472;18.048;2022-12-24T06:36:10;4.73;;;1.13;;
10281;SDS011;5186;59.472;18.048;2022-12-24T06:38:43;1.83;;;0.93;;
10281;SDS011;5186;59.472;18.048;2022-12-24T06:41:09;1.07;;;0.80;;
10281;SDS011;5186;59.472;18.048;2022-12-24T06:43:34;1.57;;;0.90;;
10281;SDS011;5186;59.472;18.048;2022-12-24T06:46:00;0.87;;;0.80;;
10281;SDS011;5186;59.472;18.048;2022-12-24T06:48:27;2.70;;;0.90;;
10281;SDS011;5186;59.472;18.048;2022-12-24T06:50:53;1.07;;;0.80;;
10281;SDS011;5186;59.472;18.048;2022-12-24T06:53:18;1.20;;;0.70;;
10281;SDS011;5186;59.472;18.048;2022-12-24T06:55:44;1.77;;;0.90;;
10281;SDS011;5186;59.472;18.048;2022-12-24T06:58:10;1.03;;;0.70;;
10281;SDS011;5186;59.472;18.048;2022-12-24T07:00:35;1.77;;;0.90;;
10281;SDS011;5186;59.472;18.048;2022-12-24T07:03:01;2.43;;;0.90;;
10281;SDS011;5186;59.472;18.048;2022-12-24T07:05:27;0.70;;;0.70;;
10281;SDS011;5186;59.472;18.048;2022-12-24T07:07:53;1.23;;;0.87;;
10281;SDS011;5186;59.472;18.048;2022-12-24T07:10:19;1.33;;;0.80;;
10281;SDS011;5186;59.472;18.048;2022-12-24T07:12:46;1.30;;;0.77;;
10281;SDS011;5186;59.472;18.048;2022-12-24T07:15:12;1.77;;;1.00;;
10281;SDS011;5186;59.472;18.048;2022-12-24T07:17:39;1.30;;;0.67;;
10281;SDS011;5186;59.472;18.048;2022-12-24T07:20:05;1.77;;;0.73;;
10281;SDS011;5186;59.472;18.048;2022-12-24T07:22:33;1.27;;;0.77;;
10281;SDS011;5186;59.472;18.048;2022-12-24T07:24:58;2.13;;;1.00;;
10281;SDS011;5186;59.472;18.048;2022-12-24T07:27:24;1.23;;;0.80;;
10281;SDS011;5186;59.472;18.048;2022-12-24T07:29:50;2.53;;;1.00;;
10281;SDS011;5186;59.472;18.048;2022-12-24T07:32:15;1.50;;;1.40;;
10281;SDS011;5186;59.472;18.048;2022-12-24T07:34:41;1.90;;;1.30;;
10281;SDS011;5186;59.472;18.048;2022-12-24T07:37:07;1.30;;;1.20;;
10281;SDS011;5186;59.472;18.048;2022-12-24T07:39:32;1.67;;;1.20;;
10281;SDS011;5186;59.472;18.048;2022-12-24T07:41:58;1.73;;;1.30;;
10281;SDS011;5186;59.472;18.048;2022-12-24T07:44:24;1.80;;;1.30;;
10281;SDS011;5186;59.472;18.048;2022-12-24T07:46:49;2.20;;;1.33;;
10281;SDS011;5186;59.472;18.048;2022-12-24T07:49:15;2.53;;;1.40;;
10281;SDS011;5186;59.472;18.048;2022-12-24T07:51:41;4.37;;;1.67;;
10281;SDS011;5186;59.472;18.048;2022-12-24T07:54:06;2.00;;;1.43;;
10281;SDS011;5186;59.472;18.048;2022-12-24T07:56:32;2.80;;;1.60;;
10281;SDS011;5186;59.472;18.048;2022-12-24T07:58:58;2.13;;;1.60;;
10281;SDS011;5186;59.472;18.048;2022-12-24T08:01:24;2.30;;;2.10;;
10281;SDS011;5186;59.472;18.048;2022-12-24T08:03:49;2.00;;;1.60;;
10281;SDS011;5186;59.472;18.048;2022-12-24T08:06:18;3.90;;;2.50;;
10281;SDS011;5186;59.472;18.048;2022-12-24T08:08:47;5.60;;;3.30;;
10281;SDS011;5186;59.472;18.048;2022-12-24T08:11:13;8.53;;;5.97;;
10281;SDS011;5186;59.472;18.048;2022-12-24T08:13:38;5.57;;;3.83;;
10281;SDS011;5186;59.472;18.048;2022-12-24T08:16:04;7.67;;;4.77;;
10281;SDS011;5186;59.472;18.048;2022-12-24T08:18:30;4.97;;;2.83;;
10281;SDS011;5186;59.472;18.048;2022-12-24T08:20:56;7.37;;;4.63;;
10281;SDS011;5186;59.472;18.048;2022-12-24T08:23:22;7.17;;;3.80;;
10281;SDS011;5186;59.472;18.048;2022-12-24T08:25:47;5.27;;;4.37;;
10281;SDS011;5186;59.472;18.048;2022-12-24T08:28:14;4.53;;;3.43;;
10281;SDS011;5186;59.472;18.048;2022-12-24T08:30:42;5.63;;;4.07;;
10281;SDS011;5186;59.472;18.048;2022-12-24T08:33:08;5.43;;;3.70;;
10281;SDS011;5186;59.472;18.048;2022-12-24T08:35:34;3.80;;;2.60;;
10281;SDS011;5186;59.472;18.048;2022-12-24T08:38:00;3.87;;;3.17;;
10281;SDS011;5186;59.472;18.048;2022-12-24T08:40:25;4.93;;;4.20;;
10281;SDS011;5186;59.472;18.048;2022-12-24T08:42:51;5.60;;;4.03;;
10281;SDS011;5186;59.472;18.048;2022-12-24T08:45:17;6.53;;;4.50;;
10281;SDS011;5186;59.472;18.048;2022-12-24T08:47:43;5.23;;;4.17;;
10281;SDS011;5186;59.472;18.048;2022-12-24T08:50:09;6.43;;;4.00;;
10281;SDS011;5186;59.472;18.048;2022-12-24T08:52:35;7.23;;;3.63;;
10281;SDS011;5186;59.472;18.048;2022-12-24T08:55:02;4.50;;;3.40;;
10281;SDS011;5186;59.472;18.048;2022-12-24T08:57:28;5.43;;;3.57;;
10281;SDS011;5186;59.472;18.048;2022-12-24T08:59:54;7.23;;;4.40;;
10281;SDS011;5186;59.472;18.048;2022-12-24T09:02:19;5.43;;;3.90;;
10281;SDS011;5186;59.472;18.048;2022-12-24T09:04:45;5.13;;;3.87;;
10281;SDS011;5186;59.472;18.048;2022-12-24T09:07:10;8.53;;;4.40;;
10281;SDS011;5186;59.472;18.048;2022-12-24T09:09:36;10.87;;;5.70;;
10281;SDS011;5186;59.472;18.048;2022-12-24T09:12:05;10.00;;;6.63;;
10281;SDS011;5186;59.472;18.048;2022-12-24T09:14:31;10.10;;;6.17;;
10281;SDS011;5186;59.472;18.048;2022-12-24T09:16:57;12.37;;;6.57;;
10281;SDS011;5186;59.472;18.048;2022-12-24T09:19:23;15.60;;;8.13;;
10281;SDS011;5186;59.472;18.048;2022-12-24T09:21:49;13.13;;;7.60;;
10281;SDS011;5186;59.472;18.048;2022-12-24T09:24:15;11.03;;;6.63;;
10281;SDS011;5186;59.472;18.048;2022-12-24T09:26:41;12.43;;;5.70;;
10281;SDS011;5186;59.472;18.048;2022-12-24T09:29:06;9.93;;;5.50;;
10281;SDS011;5186;59.472;18.048;2022-12-24T09:31:34;6.50;;;5.13;;
10281;SDS011;5186;59.472;18.048;2022-12-24T09:33:59;8.00;;;5.67;;
10281;SDS011;5186;59.472;18.048;2022-12-24T09:36:25;10.93;;;6.03;;
10281;SDS011;5186;59.472;18.048;2022-12-24T09:38:51;8.20;;;4.90;;
10281;SDS011;5186;59.472;18.048;2022-12-24T09:44:07;9.30;;;5.17;;
10281;SDS011;5186;59.472;18.048;2022-12-24T09:46:40;6.93;;;4.47;;
10281;SDS011;5186;59.472;18.048;2022-12-24T09:49:13;7.67;;;4.07;;
10281;SDS011;5186;59.472;18.048;2022-12-24T09:51:50;8.17;;;4.43;;
10281;SDS011;5186;59.472;18.048;2022-12-24T09:54:28;6.93;;;4.40;;
10281;SDS011;5186;59.472;18.048;2022-12-24T09:57:04;8.57;;;4.20;;
10281;SDS011;5186;59.472;18.048;2022-12-24T09:59:45;6.97;;;3.70;;
10281;SDS011;5186;59.472;18.048;2022-12-24T10:02:15;7.30;;;4.43;;
10281;SDS011;5186;59.472;18.048;2022-12-24T10:04:42;6.10;;;3.80;;
10281;SDS011;5186;59.472;18.048;2022-12-24T10:16:29;10.40;;;4.93;;
10281;SDS011;5186;59.472;18.048;2022-12-24T10:19:02;10.47;;;5.57;;
10281;SDS011;5186;59.472;18.048;2022-12-24T10:24:38;6.60;;;4.90;;
10281;SDS011;5186;59.472;18.048;2022-12-24T10:27:11;6.17;;;3.67;;
10281;SDS011;5186;59.472;18.048;2022-12-24T10:29:42;8.57;;;3.93;;
10281;SDS011;5186;59.472;18.048;2022-12-24T10:32:17;6.90;;;4.33;;
10281;SDS011;5186;59.472;18.048;2022-12-24T10:35:05;7.93;;;4.33;;
10281;SDS011;5186;59.472;18.048;2022-12-24T10:37:45;7.53;;;5.20;;
10281;SDS011;5186;59.472;18.048;2022-12-24T10:40:27;8.00;;;3.80;;
10281;SDS011;5186;59.472;18.048;2022-12-24T10:43:29;5.33;;;3.30;;
10281;SDS011;5186;59.472;18.048;2022-12-24T10:46:16;6.67;;;4.10;;
10281;SDS011;5186;59.472;18.048;2022-12-24T10:48:52;5.90;;;2.13;;
10281;SDS011;5186;59.472;18.048;2022-12-24T10:54:19;4.57;;;3.17;;
10281;SDS011;5186;59.472;18.048;2022-12-24T10:56:48;6.03;;;3.30;;
10281;SDS011;5186;59.472;18.048;2022-12-24T10:59:30;3.80;;;2.00;;
10281;SDS011;5186;59.472;18.048;2022-12-24T11:05:00;5.57;;;1.53;;
10281;SDS011;5186;59.472;18.048;2022-12-24T11:07:29;2.73;;;1.30;;
10281;SDS011;5186;59.472;18.048;2022-12-24T11:09:56;3.37;;;1.47;;
10281;SDS011;5186;59.472;18.048;2022-12-24T11:12:24;4.73;;;1.40;;
10281;SDS011;5186;59.472;18.048;2022-12-24T11:15:00;3.30;;;1.47;;
10281;SDS011;5186;59.472;18.048;2022-12-24T11:18:12;4.20;;;1.63;;
10281;SDS011;5186;59.472;18.048;2022-12-24T11:20:37;3.13;;;1.67;;
10281;SDS011;5186;59.472;18.048;2022-12-24T11:23:03;3.10;;;1.90;;
10281;SDS011;5186;59.472;18.048;2022-12-24T11:25:33;2.27;;;1.60;;
10281;SDS011;5186;59.472;18.048;2022-12-24T11:28:25;3.73;;;1.80;;
10281;SDS011;5186;59.472;18.048;2022-12-24T11:30:57;3.50;;;2.30;;
10281;SDS011;5186;59.472;18.048;2022-12-24T11:33:25;3.00;;;1.80;;
10281;SDS011;5186;59.472;18.048;2022-12-24T11:36:01;3.03;;;2.30;;
10281;SDS011;5186;59.472;18.048;2022-12-24T11:38:30;2.77;;;2.10;;
10281;SDS011;5186;59.472;18.048;2022-12-24T11:40:59;3.20;;;1.80;;
10281;SDS011;5186;59.472;18.048;2022-12-24T11:43:35;5.80;;;2.00;;
10281;SDS011;5186;59.472;18.048;2022-12-24T11:46:16;2.70;;;2.07;;
10281;SDS011;5186;59.472;18.048;2022-12-24T11:51:37;3.60;;;1.93;;
10281;SDS011;5186;59.472;18.048;2022-12-24T11:54:12;4.97;;;2.17;;
10281;SDS011;5186;59.472;18.048;2022-12-24T11:56:48;3.90;;;2.37;;
10281;SDS011;5186;59.472;18.048;2022-12-24T12:04:34;4.93;;;2.80;;
10281;SDS011;5186;59.472;18.048;2022-12-24T12:07:05;4.87;;;3.17;;
10281;SDS011;5186;59.472;18.048;2022-12-24T12:09:38;5.17;;;3.20;;
10281;SDS011;5186;59.472;18.048;2022-12-24T12:12:11;5.50;;;4.17;;
10281;SDS011;5186;59.472;18.048;2022-12-24T12:20:25;6.10;;;3.63;;
10281;SDS011;5186;59.472;18.048;2022-12-24T12:25:51;4.70;;;3.30;;
10281;SDS011;5186;59.472;18.048;2022-12-24T12:28:22;7.47;;;4.10;;
10281;SDS011;5186;59.472;18.048;2022-12-24T12:34:20;5.97;;;5.23;;
10281;SDS011;5186;59.472;18.048;2022-12-24T12:36:56;8.33;;;5.50;;
10281;SDS011;5186;59.472;18.048;2022-12-24T12:39:26;8.33;;;5.67;;
10281;SDS011;5186;59.472;18.048;2022-12-24T12:42:02;5.77;;;4.80;;
10281;SDS011;5186;59.472;18.048;2022-12-24T12:55:43;10.03;;;5.13;;
10281;SDS011;5186;59.472;18.048;2022-12-24T12:58:16;7.67;;;5.73;;
10281;SDS011;5186;59.472;18.048;2022-12-24T13:00:45;14.47;;;7.13;;
10281;SDS011;5186;59.472;18.048;2022-12-24T13:19:41;52.53;;;17.47;;
10281;SDS011;5186;59.472;18.048;2022-12-24T13:22:15;48.87;;;16.63;;
10281;SDS011;5186;59.472;18.048;2022-12-24T13:24:49;43.53;;;15.27;;
10281;SDS011;5186;59.472;18.048;2022-12-24T13:27:27;42.00;;;13.63;;
10281;SDS011;5186;59.472;18.048;2022-12-24T13:34:50;32.83;;;12.77;;
10281;SDS011;5186;59.472;18.048;2022-12-24T13:37:20;31.47;;;12.57;;
10281;SDS011;5186;59.472;18.048;2022-12-24T13:47:56;27.50;;;12.03;;
10281;SDS011;5186;59.472;18.048;2022-12-24T14:01:14;25.43;;;12.53;;
10281;SDS011;5186;59.472;18.048;2022-12-24T14:03:56;29.93;;;13.50;;
10281;SDS011;5186;59.472;18.048;2022-12-24T14:06:28;32.87;;;13.20;;
10281;SDS011;5186;59.472;18.048;2022-12-24T14:09:04;27.20;;;13.23;;
10281;SDS011;5186;59.472;18.048;2022-12-24T14:16:58;31.13;;;13.73;;
10281;SDS011;5186;59.472;18.048;2022-12-24T14:19:51;31.17;;;13.80;;
10281;SDS011;5186;59.472;18.048;2022-12-24T14:22:18;32.73;;;16.20;;
10281;SDS011;5186;59.472;18.048;2022-12-24T14:25:01;30.07;;;15.97;;
10281;SDS011;5186;59.472;18.048;2022-12-24T14:27:42;28.53;;;14.40;;
10281;SDS011;5186;59.472;18.048;2022-12-24T14:30:20;28.30;;;15.63;;
10281;SDS011;5186;59.472;18.048;2022-12-24T14:32:50;30.57;;;17.70;;
10281;SDS011;5186;59.472;18.048;2022-12-24T14:37:46;30.83;;;17.17;;
10281;SDS011;5186;59.472;18.048;2022-12-24T14:40:18;32.63;;;17.13;;
10281;SDS011;5186;59.472;18.048;2022-12-24T14:42:57;27.93;;;16.07;;
10281;SDS011;5186;59.472;18.048;2022-12-24T14:51:28;26.43;;;16.97;;
10281;SDS011;5186;59.472;18.048;2022-12-24T14:54:18;26.40;;;16.57;;
10281;SDS011;5186;59.472;18.048;2022-12-24T15:02:24;23.03;;;14.20;;
10281;SDS011;5186;59.472;18.048;2022-12-24T15:05:06;23.10;;;13.70;;
10281;SDS011;5186;59.472;18.048;2022-12-24T15:07:38;23.87;;;13.40;;
10281;SDS011;5186;59.472;18.048;2022-12-24T15:10:24;18.27;;;11.90;;
10281;SDS011;5186;59.472;18.048;2022-12-24T15:12:53;19.93;;;12.83;;
10281;SDS011;5186;59.472;18.048;2022-12-24T15:15:20;19.83;;;12.57;;
10281;SDS011;5186;59.472;18.048;2022-12-24T15:17:46;19.77;;;14.50;;
10281;SDS011;5186;59.472;18.048;2022-12-24T15:20:22;19.40;;;13.90;;
10281;SDS011;5186;59.472;18.048;2022-12-24T15:22:51;20.40;;;14.17;;
10281;SDS011;5186;59.472;18.048;2022-12-24T15:25:20;18.27;;;13.33;;
10281;SDS011;5186;59.472;18.048;2022-12-24T15:27:50;20.33;;;13.17;;
10281;SDS011;5186;59.472;18.048;2022-12-24T15:30:20;20.57;;;13.23;;
10281;SDS011;5186;59.472;18.048;2022-12-24T15:32:55;18.07;;;12.30;;
10281;SDS011;5186;59.472;18.048;2022-12-24T15:35:29;21.47;;;12.27;;
10281;SDS011;5186;59.472;18.048;2022-12-24T15:38:02;17.63;;;12.07;;
10281;SDS011;5186;59.472;18.048;2022-12-24T15:40:30;20.17;;;12.67;;
10281;SDS011;5186;59.472;18.048;2022-12-24T15:42:58;20.00;;;12.10;;
10281;SDS011;5186;59.472;18.048;2022-12-24T15:45:25;16.87;;;12.27;;
10281;SDS011;5186;59.472;18.048;2022-12-24T15:48:17;18.47;;;13.30;;
10281;SDS011;5186;59.472;18.048;2022-12-24T15:50:49;19.37;;;13.53;;
10281;SDS011;5186;59.472;18.048;2022-12-24T15:53:36;19.93;;;13.73;;
10281;SDS011;5186;59.472;18.048;2022-12-24T15:56:11;17.03;;;13.43;;
10281;SDS011;5186;59.472;18.048;2022-12-24T15:58:51;16.13;;;12.30;;
10281;SDS011;5186;59.472;18.048;2022-12-24T16:01:23;21.23;;;12.90;;
10281;SDS011;5186;59.472;18.048;2022-12-24T16:06:17;17.17;;;13.17;;
10281;SDS011;5186;59.472;18.048;2022-12-24T16:08:45;15.70;;;11.93;;
10281;SDS011;5186;59.472;18.048;2022-12-24T16:14:03;18.57;;;12.13;;
10281;SDS011;5186;59.472;18.048;2022-12-24T16:16:44;16.63;;;11.40;;
10281;SDS011;5186;59.472;18.048;2022-12-24T16:19:15;18.50;;;12.70;;
10281;SDS011;5186;59.472;18.048;2022-12-24T16:22:03;17.83;;;11.67;;
10281;SDS011;5186;59.472;18.048;2022-12-24T16:24:49;15.10;;;11.73;;
10281;SDS011;5186;59.472;18.048;2022-12-24T16:27:16;20.50;;;13.10;;
10281;SDS011;5186;59.472;18.048;2022-12-24T16:29:42;17.83;;;12.40;;
10281;SDS011;5186;59.472;18.048;2022-12-24T16:34:56;15.23;;;11.23;;
10281;SDS011;5186;59.472;18.048;2022-12-24T16:37:22;17.40;;;11.97;;
10281;SDS011;5186;59.472;18.048;2022-12-24T16:39:48;19.43;;;12.77;;
10281;SDS011;5186;59.472;18.048;2022-12-24T16:42:14;21.80;;;13.43;;
10281;SDS011;5186;59.472;18.048;2022-12-24T16:45:01;19.37;;;13.53;;
10281;SDS011;5186;59.472;18.048;2022-12-24T16:47:27;19.80;;;14.07;;
10281;SDS011;5186;59.472;18.048;2022-12-24T16:49:56;22.80;;;14.63;;
10281;SDS011;5186;59.472;18.048;2022-12-24T16:52:24;23.77;;;15.37;;
10281;SDS011;5186;59.472;18.048;2022-12-24T16:54:52;21.33;;;14.87;;
10281;SDS011;5186;59.472;18.048;2022-12-24T16:57:18;20.40;;;14.03;;
10281;SDS011;5186;59.472;18.048;2022-12-24T16:59:44;21.20;;;13.43;;
10281;SDS011;5186;59.472;18.048;2022-12-24T17:02:13;21.87;;;13.83;;
10281;SDS011;5186;59.472;18.048;2022-12-24T17:04:43;19.57;;;13.43;;
10281;SDS011;5186;59.472;18.048;2022-12-24T17:07:12;18.80;;;13.07;;
10281;SDS011;5186;59.472;18.048;2022-12-24T17:09:39;17.77;;;12.37;;
10281;SDS011;5186;59.472;18.048;2022-12-24T17:12:05;18.17;;;11.77;;
10281;SDS011;5186;59.472;18.048;2022-12-24T17:14:31;18.13;;;11.93;;
10281;SDS011;5186;59.472;18.048;2022-12-24T17:16:57;31.30;;;16.43;;
10281;SDS011;5186;59.472;18.048;2022-12-24T17:19:24;30.30;;;15.93;;
10281;SDS011;5186;59.472;18.048;2022-12-24T17:21:50;35.30;;;18.33;;
10281;SDS011;5186;59.472;18.048;2022-12-24T17:24:15;37.40;;;19.20;;